Time;durP1;ratioP1;P1;durP2;ratioP2;P2;SDS_P1;SDS_P2;PMS_P1;PMS_P2;Temp;Humidity;BMP_temperature;BMP_pressure;BME280_temperature;BME280_humidity;BME280_pressure;Samples;Min_cycle;Max_cycle;Signal;HPM_P1;HPM_P2
2023/03/19 00:02:20;;;;;;;34.17;17.52;;;;;;;-1.30;100.00;101142.84;4961506;28;20468;-78
2023/03/19 00:04:46;;;;;;;30.02;14.65;;;;;;;-1.42;100.00;101144.41;4996101;28;20030;-78
2023/03/19 00:07:13;;;;;;;27.70;15.93;;;;;;;-1.37;100.00;101142.34;4979600;28;20105;-78
2023/03/19 00:09:39;;;;;;;30.98;14.25;;;;;;;-1.30;100.00;101139.34;4980106;28;20026;-78
2023/03/19 00:12:06;;;;;;;21.95;9.98;;;;;;;-1.23;100.00;101153.88;4979578;28;20041;-78
2023/03/19 00:14:32;;;;;;;14.85;7.63;;;;;;;-1.16;100.00;101157.88;4979606;28;20050;-78
2023/03/19 00:16:58;;;;;;;21.23;10.10;;;;;;;-1.18;100.00;101154.47;4980056;28;20034;-78
2023/03/19 00:19:24;;;;;;;23.98;10.63;;;;;;;-1.27;100.00;101150.59;4963553;28;20038;-79
2023/03/19 00:21:52;;;;;;;28.27;12.25;;;;;;;-1.37;100.00;101149.44;4980135;28;20385;-78
2023/03/19 00:24:19;;;;;;;24.30;12.98;;;;;;;-1.50;100.00;101153.72;4995647;28;20069;-78
2023/03/19 00:26:45;;;;;;;37.95;12.90;;;;;;;-1.72;100.00;101149.69;4995455;28;20026;-79
2023/03/19 00:29:14;;;;;;;33.80;12.15;;;;;;;-1.72;100.00;101169.91;4963949;28;20037;-79
2023/03/19 00:31:40;;;;;;;32.10;13.02;;;;;;;-1.89;100.00;101147.13;4979885;28;20030;-78
2023/03/19 00:34:08;;;;;;;20.77;10.32;;;;;;;-1.79;100.00;101159.72;4995594;28;20090;-80
2023/03/19 00:36:36;;;;;;;12.20;5.95;;;;;;;-1.60;100.00;101158.66;4994666;28;20054;-79
2023/03/19 00:39:02;;;;;;;22.05;6.53;;;;;;;-1.28;100.00;101158.59;4979680;28;20141;-79
2023/03/19 00:41:28;;;;;;;26.42;10.75;;;;;;;-1.08;100.00;101165.34;4979316;28;20473;-78
2023/03/19 00:43:57;;;;;;;32.53;14.07;;;;;;;-1.05;100.00;101150.16;4963232;28;20042;-78
2023/03/19 00:46:24;;;;;;;39.10;13.52;;;;;;;-1.19;100.00;101143.06;4963148;28;20041;-78
2023/03/19 00:48:52;;;;;;;42.70;15.63;;;;;;;-1.23;100.00;101143.34;4962545;28;20049;-78
2023/03/19 00:51:18;;;;;;;39.88;15.70;;;;;;;-1.30;100.00;101124.38;4979728;28;20063;-78
2023/03/19 00:53:44;;;;;;;37.47;9.68;;;;;;;-1.33;100.00;101135.94;4995417;28;20461;-78
2023/03/19 00:56:11;;;;;;;27.95;12.18;;;;;;;-1.34;100.00;101131.63;4994467;28;20469;-78
2023/03/19 00:58:37;;;;;;;20.92;8.00;;;;;;;-1.47;100.00;101119.25;4995372;28;20495;-78
2023/03/19 01:01:04;;;;;;;21.25;6.95;;;;;;;-1.45;100.00;101128.78;4962574;28;20121;-78
2023/03/19 01:03:30;;;;;;;26.40;8.43;;;;;;;-1.56;100.00;101123.28;4978194;28;20046;-77
2023/03/19 01:05:57;;;;;;;20.58;6.88;;;;;;;-1.67;100.00;101130.94;4962844;28;20077;-77
2023/03/19 01:08:22;;;;;;;15.38;6.60;;;;;;;-1.82;100.00;101133.53;4978541;28;20433;-78
2023/03/19 01:10:48;;;;;;;15.23;5.70;;;;;;;-1.85;100.00;101130.22;4962869;28;20170;-77
2023/03/19 01:13:14;;;;;;;18.85;5.85;;;;;;;-1.84;100.00;101134.53;4977387;28;20109;-78
2023/03/19 01:15:43;;;;;;;17.65;6.20;;;;;;;-1.77;100.00;101125.38;4978532;28;20042;-78
2023/03/19 01:18:10;;;;;;;16.63;6.07;;;;;;;-1.71;100.00;101124.16;4962665;28;20034;-78
2023/03/19 01:20:38;;;;;;;16.98;7.35;;;;;;;-1.69;100.00;101127.53;4962539;28;20404;-78
2023/03/19 01:23:05;;;;;;;19.80;7.43;;;;;;;-1.77;100.00;101128.84;4994090;28;20469;-77
2023/03/19 01:25:32;;;;;;;60.20;19.52;;;;;;;-1.87;100.00;101113.63;4994433;28;20026;-79
2023/03/19 01:28:01;;;;;;;25.02;6.82;;;;;;;-1.73;100.00;101131.28;4962654;28;20042;-77
2023/03/19 01:30:27;;;;;;;16.42;6.30;;;;;;;-1.55;100.00;101124.97;4994516;28;20041;-78
2023/03/19 01:32:53;;;;;;;21.95;9.27;;;;;;;-1.29;100.00;101115.53;4962246;28;20030;-78
2023/03/19 01:35:18;;;;;;;20.27;6.85;;;;;;;-1.18;100.00;101120.16;4962687;28;20500;-77
2023/03/19 01:37:44;;;;;;;19.25;6.72;;;;;;;-1.16;100.00;101120.94;4977663;28;20062;-78
2023/03/19 01:40:12;;;;;;;25.20;8.93;;;;;;;-1.24;100.00;101128.47;4978133;28;20441;-77
2023/03/19 01:43:12;;;;;;;21.20;7.63;;;;;;;-1.47;100.00;101143.84;4962040;28;20049;-78
2023/03/19 01:45:41;;;;;;;24.35;10.30;;;;;;;-1.61;100.00;101151.69;4979028;28;20092;-78
2023/03/19 01:48:16;;;;;;;46.97;16.83;;;;;;;-1.63;100.00;101143.03;4994598;28;20117;-78
2023/03/19 01:50:49;;;;;;;16.05;6.65;;;;;;;-1.62;100.00;101134.16;4962253;28;20408;-79
2023/03/19 01:53:20;;;;;;;23.58;9.05;;;;;;;-1.55;100.00;101141.63;4962841;28;20461;-78
2023/03/19 01:55:46;;;;;;;25.70;8.75;;;;;;;-1.61;100.00;101146.44;4961611;28;20038;-78
2023/03/19 01:58:12;;;;;;;20.17;8.85;;;;;;;-1.85;100.00;101154.78;4946036;28;20051;-78
2023/03/19 02:00:38;;;;;;;21.40;9.00;;;;;;;-2.08;100.00;101145.53;4962169;28;20040;-78
2023/03/19 02:03:05;;;;;;;24.88;13.23;;;;;;;-2.08;100.00;101169.25;4961507;28;20092;-78
2023/03/19 02:05:30;;;;;;;10.75;8.05;;;;;;;-2.06;100.00;101166.53;4946280;28;20041;-78
2023/03/19 02:08:02;;;;;;;13.32;7.13;;;;;;;-1.93;100.00;101167.56;4961609;28;20034;-78
2023/03/19 02:10:29;;;;;;;6.57;4.88;;;;;;;-1.76;100.00;101158.69;4961777;28;20497;-80
2023/03/19 02:12:55;;;;;;;15.55;5.78;;;;;;;-1.70;100.00;101160.13;4962028;28;20030;-78
2023/03/19 02:15:21;;;;;;;24.13;6.13;;;;;;;-1.80;100.00;101168.56;4960980;28;20445;-78
2023/03/19 02:17:48;;;;;;;14.10;5.35;;;;;;;-1.88;100.00;101172.53;4993578;28;20519;-78
2023/03/19 02:20:33;;;;;;;14.60;5.50;;;;;;;-2.10;100.00;101151.81;4993437;28;20033;-77
2023/03/19 02:23:20;;;;;;;10.75;3.25;;;;;;;-2.15;100.00;101140.69;4977603;28;20150;-78
2023/03/19 02:25:45;;;;;;;9.88;4.82;;;;;;;-1.89;100.00;101153.25;4977363;28;20034;-80
2023/03/19 02:28:14;;;;;;;11.80;5.55;;;;;;;-1.83;100.00;101152.91;4977082;28;20130;-79
2023/03/19 02:30:42;;;;;;;11.63;6.18;;;;;;;-1.87;100.00;101167.19;4961682;28;20141;-79
2023/03/19 02:33:17;;;;;;;38.65;14.23;;;;;;;-1.84;100.00;101187.25;4945587;28;20039;-79
2023/03/19 02:35:45;;;;;;;38.85;13.90;;;;;;;-1.77;100.00;101175.44;4977093;28;20034;-78
2023/03/19 02:38:12;;;;;;;8.18;4.30;;;;;;;-1.75;100.00;101154.25;4961791;28;20038;-79
2023/03/19 02:40:50;;;;;;;8.27;4.20;;;;;;;-1.59;100.00;101148.03;4961404;28;20038;-78
2023/03/19 02:43:16;;;;;;;28.42;10.18;;;;;;;-1.43;100.00;101157.69;4993195;28;20085;-79
2023/03/19 02:45:42;;;;;;;24.33;10.45;;;;;;;-1.43;100.00;101169.09;4961265;28;20124;-79
2023/03/19 02:48:13;;;;;;;18.50;8.68;;;;;;;-1.56;100.00;101170.75;4976487;28;20409;-79
2023/03/19 02:50:39;;;;;;;28.50;10.80;;;;;;;-1.66;100.00;101177.47;4961471;28;20057;-79
2023/03/19 02:53:05;;;;;;;23.15;7.88;;;;;;;-1.62;100.00;101165.81;4961257;28;20475;-79
2023/03/19 02:55:39;;;;;;;19.13;7.05;;;;;;;-1.61;100.00;101162.25;4976705;28;20058;-78
2023/03/19 02:58:05;;;;;;;17.70;7.82;;;;;;;-1.72;100.00;101151.44;4945878;28;20121;-80
2023/03/19 03:00:33;;;;;;;18.50;6.78;;;;;;;-1.92;100.00;101149.94;4992924;28;20088;-80
2023/03/19 03:03:00;;;;;;;20.98;7.38;;;;;;;-2.05;100.00;101161.16;4993931;28;20038;-79
2023/03/19 03:05:26;;;;;;;10.02;5.25;;;;;;;-2.19;100.00;101141.78;4994021;28;20027;-80
2023/03/19 03:07:52;;;;;;;14.43;5.38;;;;;;;-2.02;100.00;101157.50;4977044;28;20038;-81
2023/03/19 03:10:25;;;;;;;28.75;9.23;;;;;;;-1.87;100.00;101153.19;4977511;28;20109;-80
2023/03/19 03:12:50;;;;;;;20.95;7.90;;;;;;;-1.84;100.00;101150.38;4976635;28;20038;-78
2023/03/19 03:15:16;;;;;;;22.92;9.35;;;;;;;-1.86;100.00;101150.44;4976996;28;20437;-79
2023/03/19 03:17:44;;;;;;;16.20;6.50;;;;;;;-1.95;100.00;101143.06;4992531;28;20493;-78
2023/03/19 03:20:12;;;;;;;12.25;5.00;;;;;;;-1.97;100.00;101139.66;4960999;28;20047;-78
2023/03/19 03:22:41;;;;;;;7.68;3.95;;;;;;;-1.98;100.00;101137.97;4945054;28;20042;-78
2023/03/19 03:25:10;;;;;;;12.18;3.42;;;;;;;-1.87;100.00;101135.56;4992798;28;20030;-79
2023/03/19 03:27:39;;;;;;;13.38;3.78;;;;;;;-1.82;100.00;101143.22;4976579;28;20035;-79
2023/03/19 03:30:10;;;;;;;11.85;3.97;;;;;;;-1.85;100.00;101146.88;4976712;28;20077;-79
2023/03/19 03:32:37;;;;;;;9.95;3.88;;;;;;;-1.82;100.00;101143.22;4976343;28;20034;-78
2023/03/19 03:35:05;;;;;;;12.75;3.00;;;;;;;-1.80;100.00;101129.03;4945005;28;20176;-79
2023/03/19 03:37:31;;;;;;;12.90;6.55;;;;;;;-1.60;100.00;101132.28;4962497;28;20385;-78
2023/03/19 03:39:56;;;;;;;9.18;3.50;;;;;;;-1.54;100.00;101121.38;4980394;28;20031;-80
2023/03/19 03:42:27;;;;;;;12.80;4.30;;;;;;;-1.48;100.00;101142.13;4997800;28;20034;-80
2023/03/19 03:44:53;;;;;;;12.02;3.90;;;;;;;-1.53;100.00;101138.03;4980589;28;20522;-78
2023/03/19 03:47:20;;;;;;;11.68;3.33;;;;;;;-1.54;100.00;101134.56;4996509;28;20473;-79
2023/03/19 03:49:46;;;;;;;13.10;3.67;;;;;;;-1.58;100.00;101131.25;4964544;28;20042;-78
2023/03/19 03:52:12;;;;;;;10.68;3.85;;;;;;;-1.64;100.00;101120.22;4964200;28;20034;-79
2023/03/19 03:54:38;;;;;;;9.38;3.42;;;;;;;-1.81;100.00;101114.13;4979909;28;20042;-80
2023/03/19 03:57:04;;;;;;;9.60;3.15;;;;;;;-1.95;100.00;101095.63;4980533;28;20035;-79
2023/03/19 03:59:31;;;;;;;7.00;2.90;;;;;;;-1.81;100.00;101108.84;4996246;28;20044;-79
2023/03/19 04:02:00;;;;;;;7.97;3.67;;;;;;;-1.80;100.00;101102.66;4996350;28;20038;-80
2023/03/19 04:04:26;;;;;;;10.85;3.38;;;;;;;-1.89;100.00;101108.44;4996137;28;20045;-80
2023/03/19 04:06:54;;;;;;;11.63;2.70;;;;;;;-1.92;100.00;101121.78;4996239;28;20038;-80
2023/03/19 04:09:20;;;;;;;9.05;3.35;;;;;;;-1.96;100.00;101098.34;4995868;28;20041;-80
2023/03/19 04:11:46;;;;;;;10.45;2.92;;;;;;;-1.81;100.00;101098.31;4996047;28;20034;-80
2023/03/19 04:14:11;;;;;;;10.15;3.95;;;;;;;-1.71;100.00;101085.44;4963553;28;20078;-80
2023/03/19 04:16:42;;;;;;;9.15;2.97;;;;;;;-1.80;100.00;101086.84;4995899;28;20197;-79
2023/03/19 04:19:08;;;;;;;6.00;2.88;;;;;;;-1.79;100.00;101085.91;4996009;28;20497;-80
2023/03/19 04:21:34;;;;;;;8.30;3.38;;;;;;;-1.77;100.00;101085.81;4963996;28;20051;-80
2023/03/19 04:24:01;;;;;;;8.18;3.33;;;;;;;-1.75;100.00;101086.56;4963478;28;20061;-80
2023/03/19 04:26:26;;;;;;;2.97;1.75;;;;;;;-1.64;100.00;101084.16;4980201;28;20034;-80
2023/03/19 04:28:52;;;;;;;7.68;2.85;;;;;;;-1.51;100.00;101083.44;4979647;28;20113;-80
2023/03/19 04:31:17;;;;;;;12.10;3.05;;;;;;;-1.54;100.00;101063.38;4996050;28;20473;-81
2023/03/19 04:33:44;;;;;;;11.05;3.50;;;;;;;-1.56;100.00;101065.25;4963595;28;20473;-80
2023/03/19 04:36:10;;;;;;;4.90;2.63;;;;;;;-1.50;100.00;101083.34;4995975;28;20477;-80
2023/03/19 04:38:37;;;;;;;10.63;1.95;;;;;;;-1.57;100.00;101074.09;4978832;28;20033;-79
2023/03/19 04:41:03;;;;;;;12.45;3.95;;;;;;;-1.71;100.00;101069.63;4979363;28;20061;-78
2023/03/19 04:43:28;;;;;;;10.82;4.60;;;;;;;-1.64;100.00;101083.28;4963214;28;20477;-80
2023/03/19 04:45:57;;;;;;;6.20;2.95;;;;;;;-1.62;100.00;101081.44;4979310;28;20146;-79
2023/03/19 04:48:22;;;;;;;6.68;2.88;;;;;;;-1.54;100.00;101089.72;4963505;28;20022;-80
2023/03/19 04:50:51;;;;;;;7.70;3.25;;;;;;;-1.60;100.00;101084.81;4979097;28;20049;-80
2023/03/19 04:53:17;;;;;;;2.85;2.25;;;;;;;-1.56;100.00;101103.03;4995226;28;20580;-80
2023/03/19 04:55:43;;;;;;;9.10;3.55;;;;;;;-1.71;100.00;101074.91;4979486;28;20047;-79
2023/03/19 04:58:09;;;;;;;8.65;3.20;;;;;;;-1.70;100.00;101084.50;4995465;28;20089;-79
2023/03/19 05:00:35;;;;;;;8.93;4.03;;;;;;;-1.63;100.00;101095.56;4995056;28;20113;-79
2023/03/19 05:03:01;;;;;;;14.18;3.72;;;;;;;-1.55;100.00;101112.63;4995553;28;20132;-79
2023/03/19 05:05:27;;;;;;;7.93;3.05;;;;;;;-1.66;100.00;101091.31;4994679;28;20498;-80
2023/03/19 05:07:53;;;;;;;9.10;3.05;;;;;;;-1.61;100.00;101109.50;4995111;28;20034;-80
2023/03/19 05:10:19;;;;;;;13.20;3.33;;;;;;;-1.59;100.00;101123.44;4979003;28;20076;-82
2023/03/19 05:12:45;;;;;;;5.95;2.85;;;;;;;-1.58;100.00;101115.44;4995203;28;20034;-81
2023/03/19 05:15:11;;;;;;;7.82;2.92;;;;;;;-1.57;100.00;101116.28;4962685;28;20044;-81
2023/03/19 05:17:36;;;;;;;12.00;3.22;;;;;;;-1.47;100.00;101119.25;4962720;28;20047;-81
2023/03/19 05:20:03;;;;;;;4.72;2.45;;;;;;;-1.46;100.00;101113.03;4995210;28;20045;-82
2023/03/19 05:22:29;;;;;;;4.38;2.80;;;;;;;-1.46;100.00;101118.31;4978749;28;20042;-80
2023/03/19 05:24:55;;;;;;;5.25;2.75;;;;;;;-1.45;100.00;101122.66;4994684;28;20449;-80
2023/03/19 05:27:23;;;;;;;5.13;2.80;;;;;;;-1.50;100.00;101120.28;4962862;28;20113;-80
2023/03/19 05:29:48;;;;;;;11.55;2.90;;;;;;;-1.59;100.00;101110.25;4962444;28;20038;-80
2023/03/19 05:32:14;;;;;;;5.68;2.70;;;;;;;-1.59;100.00;101116.41;4994605;28;20047;-80
2023/03/19 05:34:43;;;;;;;9.93;3.17;;;;;;;-1.64;100.00;101118.44;4978994;28;20044;-79
2023/03/19 05:37:08;;;;;;;6.65;2.50;;;;;;;-1.62;100.00;101121.81;4978397;28;20046;-78
2023/03/19 05:39:37;;;;;;;5.82;1.58;;;;;;;-1.66;100.00;101112.41;4994625;28;20034;-78
2023/03/19 05:42:03;;;;;;;7.97;2.60;;;;;;;-1.65;100.00;101108.81;4978597;28;20042;-78
2023/03/19 05:44:29;;;;;;;5.65;3.05;;;;;;;-1.68;100.00;101110.78;4995332;28;20034;-79
2023/03/19 05:46:55;;;;;;;5.30;2.15;;;;;;;-1.73;100.00;101113.69;4994613;28;20097;-78
2023/03/19 05:49:21;;;;;;;7.75;2.55;;;;;;;-1.78;100.00;101119.22;4978015;28;20101;-81
2023/03/19 05:51:47;;;;;;;10.30;2.60;;;;;;;-1.79;100.00;101112.25;4962219;28;20037;-80
2023/03/19 05:54:13;;;;;;;6.72;2.72;;;;;;;-1.72;100.00;101123.31;4961867;28;20480;-81
2023/03/19 05:56:39;;;;;;;5.28;2.70;;;;;;;-1.81;100.00;101095.66;4978291;28;20038;-81
2023/03/19 05:59:07;;;;;;;5.38;2.35;;;;;;;-1.79;100.00;101106.13;4993664;28;20030;-80
2023/03/19 06:01:33;;;;;;;5.10;2.63;;;;;;;-1.79;100.00;101112.25;4993592;28;20022;-81
2023/03/19 06:03:58;;;;;;;5.13;2.35;;;;;;;-1.84;100.00;101106.41;4962160;28;20049;-81
2023/03/19 06:06:24;;;;;;;5.43;2.63;;;;;;;-1.89;100.00;101116.34;4978070;28;20037;-80
2023/03/19 06:08:50;;;;;;;6.30;2.38;;;;;;;-1.99;100.00;101099.34;4993677;28;20027;-82
2023/03/19 06:11:16;;;;;;;7.07;2.03;;;;;;;-1.91;100.00;101114.72;4961653;28;20045;-80
2023/03/19 06:13:42;;;;;;;7.70;2.10;;;;;;;-1.91;100.00;101125.28;4993606;28;20057;-80
2023/03/19 06:16:08;;;;;;;7.13;2.50;;;;;;;-2.03;100.00;101093.41;4978243;28;20053;-81
2023/03/19 06:18:34;;;;;;;6.53;2.28;;;;;;;-1.90;100.00;101117.28;4993730;28;20373;-80
2023/03/19 06:20:59;;;;;;;11.93;2.53;;;;;;;-1.84;100.00;101126.63;4977774;28;20034;-81
2023/03/19 06:23:26;;;;;;;4.88;1.55;;;;;;;-1.73;100.00;101132.13;4993366;28;20034;-79
2023/03/19 06:25:51;;;;;;;3.53;1.85;;;;;;;-1.69;100.00;101120.50;4993837;28;20041;-80
2023/03/19 06:28:17;;;;;;;4.43;2.13;;;;;;;-1.60;100.00;101116.47;4977757;28;20026;-79
2023/03/19 06:30:43;;;;;;;4.55;1.92;;;;;;;-1.45;100.00;101114.75;4977117;28;20393;-79
2023/03/19 06:33:08;;;;;;;6.75;2.00;;;;;;;-1.45;100.00;101094.47;4977080;28;20037;-79
2023/03/19 06:35:34;;;;;;;6.05;2.88;;;;;;;-1.26;100.00;101119.78;4977284;28;20030;-79
2023/03/19 06:38:00;;;;;;;3.25;1.75;;;;;;;-1.15;100.00;101127.91;4961185;28;20034;-79
2023/03/19 06:40:25;;;;;;;1.23;1.13;;;;;;;-1.11;100.00;101118.88;4993604;28;20030;-79
2023/03/19 06:42:51;;;;;;;4.78;2.17;;;;;;;-1.12;100.00;101093.41;4992978;28;20120;-80
2023/03/19 06:45:18;;;;;;;5.13;1.92;;;;;;;-1.05;100.00;101101.81;4977316;28;20489;-79
2023/03/19 06:47:46;;;;;;;4.38;2.45;;;;;;;-0.96;100.00;101115.28;4994694;28;20038;-78
2023/03/19 06:50:13;;;;;;;1.83;1.23;;;;;;;-0.94;100.00;101121.31;4977332;28;20042;-79
2023/03/19 06:52:40;;;;;;;4.68;2.30;;;;;;;-0.84;100.00;101110.22;4961081;28;20062;-80
2023/03/19 06:55:07;;;;;;;4.75;2.17;;;;;;;-0.65;100.00;101104.66;4992807;28;20038;-78
2023/03/19 06:57:34;;;;;;;7.65;2.10;;;;;;;-0.48;100.00;101107.06;4994153;28;20030;-78
2023/03/19 07:00:00;;;;;;;5.65;2.03;;;;;;;-0.43;100.00;101096.22;4977011;28;20031;-79
2023/03/19 07:02:26;;;;;;;7.07;2.38;;;;;;;-0.24;100.00;101104.66;4993934;28;20026;-79
2023/03/19 07:04:52;;;;;;;7.15;2.65;;;;;;;-0.08;100.00;101104.53;4960797;28;20077;-79
2023/03/19 07:07:20;;;;;;;10.60;2.25;;;;;;;0.08;100.00;101117.63;4960990;28;20034;-79
2023/03/19 07:09:49;;;;;;;16.58;2.90;;;;;;;0.20;100.00;101122.13;4976779;28;20061;-79
2023/03/19 07:12:16;;;;;;;6.95;2.38;;;;;;;0.37;100.00;101121.00;4959968;28;20117;-79
2023/03/19 07:14:41;;;;;;;8.30;2.55;;;;;;;0.51;100.00;101115.66;4977171;28;20058;-78
2023/03/19 07:17:07;;;;;;;13.82;2.92;;;;;;;0.65;100.00;101115.56;4976582;28;20451;-79
2023/03/19 07:19:36;;;;;;;11.82;3.13;;;;;;;0.79;100.00;101117.28;4994079;28;20512;-79
2023/03/19 07:22:03;;;;;;;10.15;2.80;;;;;;;0.86;100.00;101112.44;4977322;28;20039;-80
2023/03/19 07:24:28;;;;;;;8.18;2.97;;;;;;;0.94;100.00;101123.34;4992528;28;20492;-79
2023/03/19 07:26:54;;;;;;;10.10;3.05;;;;;;;1.05;100.00;101117.31;4992764;28;20034;-79
2023/03/19 07:29:20;;;;;;;10.25;3.70;;;;;;;1.24;100.00;101128.31;4976702;28;20034;-78
2023/03/19 07:31:46;;;;;;;9.77;2.92;;;;;;;1.37;100.00;101130.13;4976166;28;20049;-79
2023/03/19 07:34:11;;;;;;;11.18;3.28;;;;;;;1.44;100.00;101121.63;4960480;28;20034;-80
2023/03/19 07:36:37;;;;;;;13.77;2.90;;;;;;;1.57;100.00;101126.06;4976701;28;20053;-79
2023/03/19 07:39:03;;;;;;;9.57;2.60;;;;;;;1.64;100.00;101119.38;4976087;28;20038;-79
2023/03/19 07:41:29;;;;;;;8.73;2.97;;;;;;;1.61;100.00;101101.88;4991973;28;20109;-78
2023/03/19 07:44:05;;;;;;;12.13;3.05;;;;;;;1.84;100.00;101137.34;4976780;28;20605;-79
2023/03/19 07:46:47;;;;;;;12.60;3.83;;;;;;;1.87;100.00;101129.16;4977492;28;20397;-78
2023/03/19 07:49:13;;;;;;;17.00;6.00;;;;;;;1.94;100.00;101118.97;4960411;28;20473;-79
2023/03/19 07:51:39;;;;;;;22.42;8.88;;;;;;;2.12;100.00;101130.91;4992714;28;20112;-81
2023/03/19 07:54:05;;;;;;;29.50;13.07;;;;;;;2.18;100.00;101135.75;4991746;28;20117;-80
2023/03/19 07:56:31;;;;;;;22.45;9.73;;;;;;;2.32;100.00;101137.38;4960433;28;20038;-79
2023/03/19 07:58:59;;;;;;;23.88;8.85;;;;;;;2.44;100.00;101135.66;4992262;28;20547;-80
2023/03/19 08:01:25;;;;;;;20.35;6.18;;;;;;;2.58;100.00;101138.09;4960834;28;20689;-81
2023/03/19 08:03:51;;;;;;;103.38;19.17;;;;;;;2.76;100.00;101135.88;4991875;28;20038;-78
2023/03/19 08:06:17;;;;;;;15.75;5.25;;;;;;;2.81;100.00;101124.91;4960208;28;20042;-80
2023/03/19 08:08:46;;;;;;;26.65;17.83;;;;;;;2.87;100.00;101124.44;4993724;28;20026;-80
2023/03/19 08:11:12;;;;;;;9.90;4.40;;;;;;;2.96;100.00;101123.72;4992302;28;20488;-79
2023/03/19 08:13:38;;;;;;;15.27;5.18;;;;;;;3.12;100.00;101130.53;4976224;28;20034;-79
2023/03/19 08:16:04;;;;;;;8.40;3.72;;;;;;;3.24;100.00;101129.59;4960445;28;20493;-78
2023/03/19 08:18:32;;;;;;;10.45;3.75;;;;;;;3.30;100.00;101124.63;4959694;28;20077;-79
2023/03/19 08:21:00;;;;;;;10.07;3.40;;;;;;;3.40;100.00;101134.56;4992319;28;20030;-77
2023/03/19 08:23:31;;;;;;;11.68;3.42;;;;;;;3.56;100.00;101139.50;4993568;28;20085;-80
2023/03/19 08:25:57;;;;;;;22.42;3.15;;;;;;;3.62;100.00;101131.03;4995457;28;20100;-78
2023/03/19 08:28:23;;;;;;;7.53;2.92;;;;;;;3.66;100.00;101136.00;4997481;28;20042;-80
2023/03/19 08:30:48;;;;;;;18.08;4.88;;;;;;;3.75;100.00;101139.72;4979467;28;20414;-79
2023/03/19 08:33:14;;;;;;;13.88;4.95;;;;;;;3.85;100.00;101123.88;4963183;28;20118;-78
2023/03/19 08:35:41;;;;;;;9.93;2.67;;;;;;;3.96;100.00;101121.19;4996484;28;20365;-78
2023/03/19 08:38:10;;;;;;;10.27;3.20;;;;;;;4.12;100.00;101126.97;4995555;28;20039;-78
2023/03/19 08:40:39;;;;;;;9.82;3.45;;;;;;;4.27;100.00;101135.53;4964426;28;20484;-78
2023/03/19 08:43:06;;;;;;;17.58;3.42;;;;;;;4.43;100.00;101134.28;4995399;28;20093;-78
2023/03/19 08:45:32;;;;;;;14.13;2.75;;;;;;;4.52;100.00;101133.50;4995289;28;20085;-81
2023/03/19 08:47:58;;;;;;;11.63;3.10;;;;;;;4.62;100.00;101126.44;4995884;28;20034;-79
2023/03/19 08:50:24;;;;;;;12.35;3.25;;;;;;;4.74;100.00;101130.75;4995665;28;20065;-81
2023/03/19 08:52:50;;;;;;;12.20;3.75;;;;;;;4.82;100.00;101120.28;4995650;28;20061;-81
2023/03/19 08:55:16;;;;;;;10.15;3.20;;;;;;;4.87;100.00;101113.69;4995355;28;20035;-81
2023/03/19 08:57:43;;;;;;;11.18;3.22;;;;;;;4.98;100.00;101117.16;4994537;28;20054;-79
2023/03/19 09:00:09;;;;;;;24.05;8.27;;;;;;;5.12;100.00;101121.31;4995952;28;20423;-79
2023/03/19 09:02:40;;;;;;;12.35;4.22;;;;;;;5.20;100.00;101112.66;4979157;28;20113;-81
2023/03/19 09:05:06;;;;;;;11.90;3.28;;;;;;;5.33;100.00;101107.09;4963173;28;20465;-80
2023/03/19 09:07:32;;;;;;;6.95;2.78;;;;;;;5.50;100.00;101102.00;4978981;28;20034;-80
2023/03/19 09:10:03;;;;;;;8.35;2.60;;;;;;;5.61;100.00;101109.06;4995359;28;20063;-78
2023/03/19 09:12:29;;;;;;;10.80;3.35;;;;;;;5.77;100.00;101094.34;4978764;28;20030;-78
2023/03/19 09:15:00;;;;;;;14.05;2.85;;;;;;;5.93;100.00;101094.69;4994426;28;20084;-78
2023/03/19 09:17:29;;;;;;;16.38;4.10;;;;;;;6.03;100.00;101081.34;4995362;28;20065;-78
2023/03/19 09:19:54;;;;;;;12.65;3.42;;;;;;;6.31;100.00;101091.22;4978736;28;20466;-78
2023/03/19 09:22:21;;;;;;;11.65;3.30;;;;;;;6.50;100.00;101090.38;4962358;28;20026;-80
2023/03/19 09:24:47;;;;;;;8.93;3.83;;;;;;;6.75;100.00;101086.28;4997680;28;20039;-80
2023/03/19 09:27:14;;;;;;;23.00;6.75;;;;;;;7.12;100.00;101090.88;4997852;28;20026;-77
2023/03/19 09:29:40;;;;;;;13.38;3.00;;;;;;;7.43;100.00;101079.91;4966622;28;20041;-79
2023/03/19 09:32:06;;;;;;;13.65;3.47;;;;;;;7.64;100.00;101075.13;5002540;28;20033;-80
2023/03/19 09:34:33;;;;;;;9.82;3.03;;;;;;;7.80;100.00;101077.16;4997976;28;20038;-80
2023/03/19 09:36:59;;;;;;;14.00;4.40;;;;;;;7.70;100.00;101065.69;4964161;28;20045;-77
2023/03/19 09:39:25;;;;;;;12.45;4.82;;;;;;;7.69;100.00;101062.16;4962590;28;20038;-78
2023/03/19 09:42:11;;;;;;;13.15;4.45;;;;;;;7.57;100.00;101065.19;4962947;28;20038;-78
2023/03/19 09:44:45;;;;;;;8.20;2.92;;;;;;;7.31;100.00;101073.06;4978453;28;20026;-78
2023/03/19 09:47:17;;;;;;;11.93;4.85;;;;;;;6.99;100.00;101077.81;4978320;28;20049;-79
2023/03/19 09:49:44;;;;;;;17.23;4.35;;;;;;;6.77;100.00;101064.75;4995520;28;20022;-84
2023/03/19 09:52:46;;;;;;;12.57;4.35;;;;;;;6.68;100.00;101073.66;4946641;28;20136;-78
2023/03/19 09:55:15;;;;;;;34.53;16.55;;;;;;;6.60;100.00;101061.84;4994115;28;20038;-78
2023/03/19 09:57:41;;;;;;;14.38;6.05;;;;;;;6.65;100.00;101064.09;4995575;28;20034;-79
2023/03/19 10:00:21;;;;;;;18.58;6.63;;;;;;;6.71;100.00;101066.19;4978419;28;20392;-78
2023/03/19 10:02:51;;;;;;;15.93;4.45;;;;;;;6.85;100.00;101069.38;4994559;28;20034;-79
2023/03/19 10:05:31;;;;;;;16.45;4.00;;;;;;;7.00;100.00;101071.47;4993984;28;20037;-79
2023/03/19 10:08:27;;;;;;;18.23;2.95;;;;;;;7.13;100.00;101072.97;4978315;28;20038;-78
2023/03/19 10:11:22;;;;;;;12.80;5.05;;;;;;;7.17;100.00;101069.88;4947892;28;20424;-79
2023/03/19 10:14:26;;;;;;;43.90;14.95;;;;;;;7.04;100.00;101064.00;4994142;28;20045;-79
2023/03/19 10:16:53;;;;;;;38.03;15.60;;;;;;;6.93;100.00;101073.03;4993611;28;20038;-78
2023/03/19 10:19:23;;;;;;;24.40;7.85;;;;;;;6.78;100.00;101063.78;4962102;28;20038;-79
2023/03/19 10:22:02;;;;;;;33.25;13.30;;;;;;;6.67;100.00;101054.09;4977327;28;20026;-77
2023/03/19 10:24:32;;;;;;;14.73;5.60;;;;;;;6.78;100.00;101058.44;4978082;28;20045;-79
2023/03/19 10:27:01;;;;;;;8.82;3.38;;;;;;;6.93;100.00;101049.00;4977335;28;20086;-77
2023/03/19 10:29:27;;;;;;;11.85;4.18;;;;;;;7.06;100.00;101043.28;4977781;28;20039;-78
2023/03/19 10:32:17;;;;;;;21.33;6.88;;;;;;;7.31;100.00;101044.47;4961704;28;20034;-78
2023/03/19 10:34:47;;;;;;;36.40;11.90;;;;;;;7.48;100.00;101032.13;4977172;28;20045;-78
2023/03/19 10:37:21;;;;;;;22.17;6.18;;;;;;;7.47;100.00;101046.53;4961806;28;20042;-77
2023/03/19 10:39:49;;;;;;;31.48;11.18;;;;;;;7.34;100.00;101030.81;4977374;28;20063;-78
2023/03/19 10:42:31;;;;;;;18.33;6.47;;;;;;;7.36;100.00;101047.56;4977679;28;20054;-78
2023/03/19 10:45:32;;;;;;;16.08;7.22;;;;;;;7.17;100.00;101050.28;4960773;28;20030;-81
2023/03/19 10:47:59;;;;;;;20.92;5.03;;;;;;;6.91;100.00;101042.94;4993097;28;20114;-80
2023/03/19 10:50:32;;;;;;;16.63;5.53;;;;;;;6.71;100.00;101050.13;4976939;28;20026;-79
2023/03/19 10:53:12;;;;;;;16.27;4.68;;;;;;;6.48;100.00;101049.59;4961150;28;20082;-81
2023/03/19 10:55:43;;;;;;;14.10;4.70;;;;;;;6.27;100.00;101057.78;4993286;28;20512;-80
2023/03/19 10:58:18;;;;;;;14.18;4.63;;;;;;;6.15;100.00;101050.88;4977227;28;20049;-80
2023/03/19 11:00:45;;;;;;;5.55;2.88;;;;;;;6.09;100.00;101048.78;4961013;28;20030;-80
2023/03/19 11:03:46;;;;;;;13.98;3.35;;;;;;;6.06;100.00;101051.72;4993450;28;20045;-80
2023/03/19 11:06:19;;;;;;;5.45;2.33;;;;;;;6.00;100.00;101045.09;4983006;28;20042;-80
2023/03/19 11:08:54;;;;;;;4.27;1.60;;;;;;;5.99;100.00;101043.44;4976220;28;20118;-81
2023/03/19 11:11:25;;;;;;;12.23;2.35;;;;;;;6.01;100.00;101035.31;4961814;28;20038;-84
2023/03/19 11:13:51;;;;;;;3.38;1.60;;;;;;;6.03;100.00;101036.81;4976831;28;20026;-86
2023/03/19 11:16:17;;;;;;;1.17;0.70;;;;;;;6.09;100.00;101030.09;4977052;28;20228;-84
2023/03/19 11:18:46;;;;;;;0.40;0.40;;;;;;;6.07;100.00;101026.72;4960402;28;20145;-79
2023/03/19 11:21:26;;;;;;;0.40;0.40;;;;;;;6.07;100.00;101032.91;4993053;28;20038;-80